Terminal Aerodrome Forecast
Issued by NWS

Home | Current Version | Previous Version | Text Only | Print | Product List | Glossary On
Versions: 1 2 3 4 5 6 7 8 9 10 11 12
000
FTUS43 KOAX 020522
TAFCDR
TAF
KCDR 020522Z 0206/0306 VRB03KT P6SM FEW100
     FM021500 33010KT P6SM OVC050
     FM030300 36007KT P6SM BKN150=

USA.gov is the U.S. government's official web portal to all federal, state and local government web resources and services.